Latest Weather Observations for Lord Howe Island Windy Point

IDN60801

Issued at 3:06 pm EDT Thursday 29 January 2015 (issued every 30 minutes, with the page automatically refreshed every 10 minutes)

About weather observations | Map of weather stations | Latest weather observations for NSW | Other Formats
Station Details ID: 200715 Name: LORD HOWE ISLAND WINDY POINT Lat: -31.54 Lon: 159.07 Height: 4.0 m
Data from the previous 72 hours. | See also: Recent months for locations in New South Wales
Date/Time
EDT
Temp
°C
App
Temp
°C
Dew
Point
Rel
Hum
%
Delta-T
°C
Wind Press
QNH
hPa
Press
MSL
hPa
Rain
since 9 am
mm
Dir
 
Spd
km/h
Gust
km/h
Spd
kts
Gust
kts
29/03:00pm - - - - - SW 39 46 21 25 - - -
29/02:30pm - - - - - SW 37 43 20 23 - - -
29/02:00pm - - - - - WSW 39 46 21 25 - - -
29/01:30pm - - - - - WSW 41 46 22 25 - - -
29/01:00pm - - - - - WSW 39 44 21 24 - - -
29/12:30pm - - - - - WSW 39 48 21 26 - - -
29/12:00pm - - - - - WSW 41 48 22 26 - - -
29/11:30am - - - - - SW 37 44 20 24 - - -
29/11:00am - - - - - SW 39 44 21 24 - - -
29/10:30am - - - - - SW 39 44 21 24 - - -
29/10:00am - - - - - WSW 44 50 24 27 - - -
29/09:30am - - - - - SW 37 44 20 24 - - -
29/09:00am - - - - - SW 37 44 20 24 - - -
29/08:30am - - - - - SW 37 46 20 25 - - -
29/08:00am - - - - - SW 37 46 20 25 - - -
29/07:30am - - - - - SW 41 50 22 27 - - -
29/07:00am - - - - - SSW 41 48 22 26 - - -
29/06:30am - - - - - SW 44 54 24 29 - - -
29/06:00am - - - - - WSW 43 50 23 27 - - -
29/05:30am - - - - - SW 39 48 21 26 - - -
29/05:00am - - - - - SW 44 54 24 29 - - -
29/04:30am - - - - - SW 43 50 23 27 - - -
29/04:00am - - - - - SW 39 46 21 25 - - -
29/03:30am - - - - - SW 37 44 20 24 - - -
29/03:00am - - - - - SW 37 46 20 25 - - -
29/02:30am - - - - - WSW 37 43 20 23 - - -
29/02:00am - - - - - SW 33 39 18 21 - - -
29/01:30am - - - - - SW 33 43 18 23 - - -
29/01:00am - - - - - SW 37 43 20 23 - - -
29/12:30am - - - - - SW 33 39 18 21 - - -
29/12:00am - - - - - SW 35 43 19 23 - - -
 
Date/Time
EDT
Temp
°C
App
Temp
°C
Dew
Point
Rel
Hum
%
Delta-T
°C
Wind Press
QNH
hPa
Press
MSL
hPa
Rain
since 9 am
mm
Dir
 
Spd
km/h
Gust
km/h
Spd
kts
Gust
kts
28/11:30pm - - - - - SSW 35 41 19 22 - - -
28/11:00pm - - - - - SSW 39 46 21 25 - - -
28/10:30pm - - - - - SSW 32 41 17 22 - - -
28/10:00pm - - - - - SSW 39 48 21 26 - - -
28/09:30pm - - - - - SSW 35 41 19 22 - - -
28/09:00pm - - - - - SSW 32 41 17 22 - - -
28/08:30pm - - - - - SW 26 32 14 17 - - -
28/08:00pm - - - - - SW 26 30 14 16 - - -
28/07:30pm - - - - - SW 24 30 13 16 - - -
28/07:00pm - - - - - SW 32 37 17 20 - - -
28/06:30pm - - - - - SW 26 30 14 16 - - -
28/06:00pm - - - - - SSW 24 28 13 15 - - -
28/05:30pm - - - - - SW 24 28 13 15 - - -
28/05:00pm - - - - - WSW 26 28 14 15 - - -
28/04:30pm - - - - - WSW 26 28 14 15 - - -
28/04:00pm - - - - - WSW 26 30 14 16 - - -
28/03:30pm - - - - - W 26 30 14 16 - - -
28/03:00pm - - - - - WSW 20 24 11 13 - - -
28/02:30pm - - - - - WNW 20 22 11 12 - - -
28/02:00pm - - - - - WSW 9 15 5 8 - - -
28/01:30pm - - - - - SSW 13 15 7 8 - - -
28/01:00pm - - - - - ESE 11 15 6 8 - - -
28/12:30pm - - - - - E 15 20 8 11 - - -
28/12:00pm - - - - - E 19 24 10 13 - - -
28/11:30am - - - - - ESE 24 33 13 18 - - -
28/11:00am - - - - - ESE 19 28 10 15 - - -
28/10:30am - - - - - ESE 17 28 9 15 - - -
28/10:00am - - - - - SE 19 30 10 16 - - -
28/09:30am - - - - - E 24 32 13 17 - - -
28/09:00am - - - - - E 24 30 13 16 - - -
28/08:30am - - - - - SSW 7 13 4 7 - - -
28/08:00am - - - - - ESE 15 19 8 10 - - -
28/07:30am - - - - - E 19 24 10 13 - - -
28/07:00am - - - - - ESE 15 20 8 11 - - -
28/06:30am - - - - - E 22 28 12 15 - - -
28/06:00am - - - - - E 20 26 11 14 - - -
28/05:30am - - - - - E 22 26 12 14 - - -
28/05:00am - - - - - E 17 24 9 13 - - -
28/04:30am - - - - - E 24 32 13 17 - - -
28/04:00am - - - - - ENE 24 33 13 18 - - -
28/03:30am - - - - - ENE 19 32 10 17 - - -
28/03:00am - - - - - ENE 24 33 13 18 - - -
28/02:30am - - - - - E 17 28 9 15 - - -
28/02:00am - - - - - E 20 26 11 14 - - -
28/01:30am - - - - - ESE 11 15 6 8 - - -
28/01:00am - - - - - E 9 17 5 9 - - -
28/12:30am - - - - - ESE 13 19 7 10 - - -
28/12:00am - - - - - ESE 13 17 7 9 - - -
 
Date/Time
EDT
Temp
°C
App
Temp
°C
Dew
Point
Rel
Hum
%
Delta-T
°C
Wind Press
QNH
hPa
Press
MSL
hPa
Rain
since 9 am
mm
Dir
 
Spd
km/h
Gust
km/h
Spd
kts
Gust
kts
27/11:30pm - - - - - ESE 15 19 8 10 - - -
27/11:00pm - - - - - ESE 15 20 8 11 - - -
27/10:30pm - - - - - ESE 15 22 8 12 - - -
27/10:00pm - - - - - ESE 20 30 11 16 - - -
27/09:30pm - - - - - ESE 17 26 9 14 - - -
27/09:00pm - - - - - ESE 19 32 10 17 - - -
27/08:30pm - - - - - ESE 28 44 15 24 - - -
27/08:23pm - - - - - E 24 44 13 24 - - -
27/08:00pm - - - - - E 9 15 5 8 - - -
27/07:30pm - - - - - SSE 13 24 7 13 - - -
27/07:00pm - - - - - SSW 20 35 11 19 - - -
27/06:30pm - - - - - SE 19 37 10 20 - - -
27/06:00pm - - - - - S 20 39 11 21 - - -
27/05:32pm - - - - - SSW 28 46 15 25 - - -
27/05:30pm - - - - - SSW 24 39 13 21 - - -
27/05:00pm - - - - - SSW 30 39 16 21 - - -
27/04:30pm - - - - - S 24 39 13 21 - - -
27/04:00pm - - - - - S 24 35 13 19 - - -
27/03:30pm - - - - - SSW 35 46 19 25 - - -
27/03:00pm - - - - - SSW 37 50 20 27 - - -
27/02:30pm - - - - - SSW 39 48 21 26 - - -
27/02:00pm - - - - - SSW 41 50 22 27 - - -
27/01:30pm - - - - - SSW 41 56 22 30 - - -
27/01:03pm - - - - - SSW 41 59 22 32 - - -
27/01:00pm - - - - - SSW 43 59 23 32 - - -
27/12:30pm - - - - - SSW 44 52 24 28 - - -
27/12:00pm - - - - - SSW 44 54 24 29 - - -
27/11:30am - - - - - SSW 41 52 22 28 - - -
27/11:00am - - - - - SSW 43 54 23 29 - - -
27/10:30am - - - - - SSW 41 54 22 29 - - -
27/10:00am - - - - - SSW 41 54 22 29 - - -
27/09:30am - - - - - SSW 41 54 22 29 - - -
27/09:16am - - - - - SSW 43 61 23 33 - - -
27/09:00am - - - - - SSW 39 52 21 28 - - -
27/08:30am - - - - - SSW 43 57 23 31 - - -
27/08:00am - - - - - SSW 41 59 22 32 - - -
27/07:30am - - - - - SSW 43 61 23 33 - - -
27/07:13am - - - - - SSW 41 59 22 32 - - -
27/07:00am - - - - - SSW 41 56 22 30 - - -
27/06:30am - - - - - S 33 61 18 33 - - -
27/06:00am - - - - - S 33 59 18 32 - - -
27/05:30am - - - - - SSW 33 57 18 31 - - -
27/05:06am - - - - - SSW 35 54 19 29 - - -
27/05:00am - - - - - SSW 35 50 19 27 - - -
27/04:30am - - - - - SSW 35 54 19 29 - - -
27/04:00am - - - - - S 35 54 19 29 - - -
27/03:30am - - - - - S 33 56 18 30 - - -
27/03:00am - - - - - SSW 37 61 20 33 - - -
27/02:30am - - - - - SSW 35 54 19 29 - - -
27/02:01am - - - - - SSW 28 46 15 25 - - -
27/02:00am - - - - - SSW 30 46 16 25 - - -
27/01:30am - - - - - SSW 26 37 14 20 - - -
27/01:00am - - - - - SSW 17 32 9 17 - - -
27/12:30am - - - - - SE 13 35 7 19 - - -
27/12:00am - - - - - SSE 19 41 10 22 - - -
 
Date/Time
EDT
Temp
°C
App
Temp
°C
Dew
Point
Rel
Hum
%
Delta-T
°C
Wind Press
QNH
hPa
Press
MSL
hPa
Rain
since 9 am
mm
Dir
 
Spd
km/h
Gust
km/h
Spd
kts
Gust
kts
26/11:30pm - - - - - S 30 54 16 29 - - -
26/11:00pm - - - - - SSE 32 59 17 32 - - -
26/10:30pm - - - - - SSE 30 52 16 28 - - -
26/10:27pm - - - - - SSE 32 57 17 31 - - -
26/10:22pm - - - - - SSE 35 57 19 31 - - -
26/10:00pm - - - - - S 39 59 21 32 - - -
26/09:30pm - - - - - S 32 69 17 37 - - -
26/09:00pm - - - - - SSW 37 74 20 40 - - -
26/08:57pm - - - - - S 37 74 20 40 - - -
26/08:47pm - - - - - S 33 61 18 33 - - -
26/08:30pm - - - - - S 24 69 13 37 - - -
26/08:07pm - - - - - S 35 89 19 48 - - -
26/08:05pm - - - - - S 35 89 19 48 - - -
26/08:03pm - - - - - S 41 89 22 48 - - -
26/08:00pm - - - - - S 39 78 21 42 - - -
26/07:30pm - - - - - S 39 78 21 42 - - -
26/07:00pm - - - - - S 39 82 21 44 - - -
26/06:32pm - - - - - SSE 43 83 23 45 - - -
26/06:30pm - - - - - SSE 41 83 22 45 - - -
26/06:00pm - - - - - SSE 43 80 23 43 - - -
26/05:30pm - - - - - SSE 41 74 22 40 - - -
26/05:00pm - - - - - SSE 39 80 21 43 - - -
26/04:30pm - - - - - SSE 41 76 22 41 - - -
26/04:28pm - - - - - SSE 43 76 23 41 - - -
26/04:24pm - - - - - SSE 41 76 22 41 - - -
26/04:22pm - - - - - S 43 76 23 41 - - -
26/04:01pm - - - - - SSE 35 59 19 32 - - -
26/04:00pm - - - - - SSE 35 59 19 32 - - -
26/03:33pm - - - - - S 32 50 17 27 - - -
26/03:30pm - - - - - SSE 33 50 18 27 - - -

Other Formats:

Comma delimited format used in spreadsheet applications
http://www.bom.gov.au/fwo/IDN60801/IDN60801.95995.axf

JavaScript Object Notation format (JSON) in row-major order
http://www.bom.gov.au/fwo/IDN60801/IDN60801.95995.json